Time;durP1;ratioP1;P1;durP2;ratioP2;P2;SDS_P1;SDS_P2;PMS_P1;PMS_P2;Temp;Humidity;BMP_temperature;BMP_pressure;BME280_temperature;BME280_humidity;BME280_pressure;Samples;Min_cycle;Max_cycle;Signal;HPM_P1;HPM_P2
2021/10/20 00:02:05;;;;;;;25.90;20.27;;;;;;;8.33;71.28;102766.28;6119002;23;20570;-66
2021/10/20 00:04:31;;;;;;;27.03;21.33;;;;;;;8.09;71.11;102738.97;6120190;23;20164;-66
2021/10/20 00:06:59;;;;;;;28.57;22.33;;;;;;;8.18;71.23;102737.56;6120794;23;20509;-66
2021/10/20 00:09:25;;;;;;;25.43;19.83;;;;;;;8.37;71.42;102772.69;6120909;23;20247;-66
2021/10/20 00:11:50;;;;;;;24.10;19.03;;;;;;;8.38;70.82;102768.75;6117244;23;20612;-66
2021/10/20 00:14:16;;;;;;;28.27;19.63;;;;;;;8.35;71.25;102763.97;6120088;23;20206;-66
2021/10/20 00:16:42;;;;;;;28.90;21.43;;;;;;;8.24;70.99;102741.66;6120775;23;20637;-66
2021/10/20 00:19:08;;;;;;;27.30;22.17;;;;;;;8.41;70.72;102762.50;6121420;23;20157;-66
2021/10/20 00:21:34;;;;;;;25.33;20.10;;;;;;;8.38;70.82;102760.47;6119215;23;20151;-66
2021/10/20 00:23:59;;;;;;;25.77;18.93;;;;;;;8.14;70.58;102724.84;6120723;23;20231;-66
2021/10/20 00:26:25;;;;;;;24.20;19.13;;;;;;;8.28;70.32;102744.47;6120001;23;20245;-66
2021/10/20 00:28:51;;;;;;;27.53;17.77;;;;;;;8.31;69.88;102752.81;6121138;23;20157;-66
2021/10/20 00:31:16;;;;;;;23.50;15.50;;;;;;;8.36;69.48;102757.28;6119022;23;20210;-66
2021/10/20 00:33:42;;;;;;;23.03;16.47;;;;;;;8.04;69.06;102714.41;6120196;23;20248;-66
2021/10/20 00:36:07;;;;;;;26.97;17.93;;;;;;;8.18;69.61;102742.28;6119720;23;20187;-66
2021/10/20 00:38:33;;;;;;;31.20;18.63;;;;;;;8.21;69.70;102747.91;6120675;23;20179;-66
2021/10/20 00:40:58;;;;;;;25.73;17.73;;;;;;;8.22;69.40;102748.69;6118802;23;20624;-66
2021/10/20 00:43:26;;;;;;;29.27;17.77;;;;;;;8.05;69.43;102718.75;6119806;23;20259;-66
2021/10/20 00:45:52;;;;;;;22.73;17.33;;;;;;;8.08;69.53;102732.63;6120096;23;20287;-66
2021/10/20 00:48:18;;;;;;;25.87;17.30;;;;;;;8.13;69.56;102729.56;6120546;23;20187;-66
2021/10/20 00:50:43;;;;;;;20.40;15.60;;;;;;;8.19;69.45;102732.81;6119035;23;20151;-66
2021/10/20 00:53:09;;;;;;;19.33;15.80;;;;;;;8.18;69.25;102736.75;6120620;23;20374;-66
2021/10/20 00:55:36;;;;;;;19.03;15.37;;;;;;;8.11;69.29;102737.41;6119346;23;20265;-66
2021/10/20 00:58:02;;;;;;;22.80;15.93;;;;;;;8.09;69.31;102733.44;6116448;23;20153;-66
2021/10/20 01:00:28;;;;;;;22.17;16.47;;;;;;;8.08;69.24;102729.06;6117570;23;20161;-66
2021/10/20 01:02:54;;;;;;;21.30;15.83;;;;;;;8.05;69.55;102732.56;6120185;23;20151;-66
2021/10/20 01:05:21;;;;;;;18.57;15.37;;;;;;;8.03;69.25;102724.63;6118091;23;20177;-66
2021/10/20 01:07:47;;;;;;;22.57;14.27;;;;;;;7.71;68.85;102686.50;6119148;23;20514;-66
2021/10/20 01:10:13;;;;;;;20.30;13.47;;;;;;;7.81;69.30;102694.19;6118907;23;20157;-66
2021/10/20 01:12:40;;;;;;;18.43;12.90;;;;;;;7.98;68.59;102722.16;6119592;23;20185;-66
2021/10/20 01:15:08;;;;;;;18.80;14.27;;;;;;;7.96;69.32;102715.41;6119731;23;20186;-66
2021/10/20 01:17:34;;;;;;;17.47;14.67;;;;;;;7.94;69.35;102715.00;6120446;23;20595;-66
2021/10/20 01:20:02;;;;;;;21.27;15.00;;;;;;;7.71;69.64;102687.31;6118857;23;20239;-66
2021/10/20 01:22:29;;;;;;;17.03;15.13;;;;;;;7.89;70.12;102718.03;6119916;23;20513;-66
2021/10/20 01:24:54;;;;;;;18.33;14.80;;;;;;;7.83;70.10;102706.47;6119485;23;20587;-67
2021/10/20 01:27:20;;;;;;;20.80;15.10;;;;;;;7.83;69.91;102705.66;6120130;23;20202;-66
2021/10/20 01:29:45;;;;;;;19.60;13.63;;;;;;;7.73;69.64;102692.44;6120895;23;20178;-66
2021/10/20 01:32:11;;;;;;;18.17;14.27;;;;;;;7.81;69.86;102699.72;6118634;23;20543;-66
2021/10/20 01:34:37;;;;;;;18.57;14.83;;;;;;;7.62;70.12;102686.72;6119563;23;20552;-66
2021/10/20 01:37:04;;;;;;;16.93;15.13;;;;;;;7.61;70.81;102704.44;6120250;23;20663;-66
2021/10/20 01:39:31;;;;;;;18.90;15.83;;;;;;;7.54;70.65;102701.53;6120470;23;20205;-66
2021/10/20 01:41:57;;;;;;;20.67;15.33;;;;;;;7.52;69.83;102701.09;6119057;23;20630;-66
2021/10/20 01:44:22;;;;;;;18.80;15.07;;;;;;;7.57;69.74;102697.25;6119567;23;20158;-66
2021/10/20 01:46:49;;;;;;;19.10;15.37;;;;;;;7.48;70.32;102686.41;6120839;23;20146;-66
2021/10/20 01:49:15;;;;;;;20.30;15.40;;;;;;;7.32;71.16;102671.88;6120608;23;20159;-66
2021/10/20 01:51:41;;;;;;;17.10;15.17;;;;;;;7.50;71.03;102708.13;6118668;23;20154;-66
2021/10/20 01:54:08;;;;;;;23.17;15.07;;;;;;;7.34;71.35;102677.06;6120311;23;20161;-65
2021/10/20 01:56:35;;;;;;;20.30;15.07;;;;;;;7.28;71.08;102700.56;6122312;23;20189;-65
2021/10/20 01:59:01;;;;;;;17.80;14.33;;;;;;;6.89;71.28;102639.03;6122695;23;20157;-65
2021/10/20 02:01:26;;;;;;;17.33;14.47;;;;;;;7.31;70.42;102691.53;6120898;23;20500;-65
2021/10/20 02:03:52;;;;;;;20.33;15.00;;;;;;;6.97;71.16;102628.94;6122323;23;20158;-65
2021/10/20 02:06:19;;;;;;;19.20;15.07;;;;;;;7.24;71.27;102664.63;6121897;23;20183;-66
2021/10/20 02:08:49;;;;;;;16.70;14.53;;;;;;;7.17;70.19;102658.94;6122542;23;20629;-65
2021/10/20 02:11:17;;;;;;;17.37;14.50;;;;;;;7.24;70.45;102681.19;6121272;23;20158;-65
2021/10/20 02:13:43;;;;;;;23.90;15.40;;;;;;;7.36;71.17;102692.06;6119754;23;20166;-65
2021/10/20 02:16:09;;;;;;;18.20;14.90;;;;;;;7.36;71.40;102705.88;6121421;23;20187;-65
2021/10/20 02:18:34;;;;;;;26.07;14.87;;;;;;;7.33;70.95;102698.31;6122353;23;20165;-65
2021/10/20 02:21:01;;;;;;;23.20;13.23;;;;;;;7.25;70.62;102691.03;6119039;23;20602;-65
2021/10/20 02:23:27;;;;;;;21.63;13.30;;;;;;;7.26;70.16;102705.63;6121528;23;20161;-65
2021/10/20 02:25:52;;;;;;;28.57;13.83;;;;;;;7.21;70.33;102694.88;6121496;23;20237;-65
2021/10/20 02:28:18;;;;;;;19.93;14.07;;;;;;;7.19;70.00;102688.91;6121819;23;20178;-65
2021/10/20 02:30:43;;;;;;;21.70;14.87;;;;;;;6.89;70.59;102654.75;6120214;23;20292;-65
2021/10/20 02:33:09;;;;;;;20.63;13.87;;;;;;;6.84;70.42;102663.28;6121471;23;20143;-65
2021/10/20 02:35:35;;;;;;;19.87;14.17;;;;;;;7.08;70.84;102698.91;6121234;23;20207;-65
2021/10/20 02:38:01;;;;;;;21.27;14.67;;;;;;;7.09;70.82;102700.50;6121460;23;20518;-65
2021/10/20 02:40:27;;;;;;;18.67;13.70;;;;;;;6.74;71.07;102663.84;6120388;23;20165;-65
2021/10/20 02:42:52;;;;;;;29.00;14.80;;;;;;;7.02;71.70;102706.66;6121587;23;20151;-65
2021/10/20 02:45:18;;;;;;;17.40;11.77;;;;;;;6.79;70.66;102688.38;6121241;23;20151;-66
2021/10/20 02:47:44;;;;;;;15.30;12.53;;;;;;;6.62;70.87;102669.44;6122073;23;20153;-65
2021/10/20 02:50:10;;;;;;;17.83;12.67;;;;;;;6.85;70.56;102707.03;6120291;23;20627;-65
2021/10/20 02:52:36;;;;;;;15.87;14.23;;;;;;;6.63;71.24;102669.09;6120991;23;20244;-65
2021/10/20 02:55:04;;;;;;;17.80;13.43;;;;;;;6.92;71.18;102704.44;6120720;23;20174;-65
2021/10/20 02:57:29;;;;;;;21.57;13.53;;;;;;;6.92;70.72;102692.63;6121829;23;20558;-65
2021/10/20 02:59:55;;;;;;;17.13;12.70;;;;;;;6.99;70.05;102703.81;6120102;23;20523;-65
2021/10/20 03:02:20;;;;;;;18.20;13.10;;;;;;;6.99;69.97;102703.81;6120744;23;20605;-65
2021/10/20 03:04:47;;;;;;;15.00;13.13;;;;;;;6.98;69.93;102711.28;6120879;23;20246;-65
2021/10/20 03:07:12;;;;;;;20.77;13.33;;;;;;;6.99;69.72;102707.38;6121010;23;20174;-65
2021/10/20 03:09:38;;;;;;;19.47;13.30;;;;;;;6.98;70.31;102703.00;6121405;23;20154;-65
2021/10/20 03:12:04;;;;;;;18.37;13.00;;;;;;;6.97;69.99;102703.38;6120198;23;20159;-65
2021/10/20 03:14:29;;;;;;;17.90;13.50;;;;;;;6.96;70.34;102710.84;6120616;23;20162;-65
2021/10/20 03:16:55;;;;;;;16.10;12.43;;;;;;;6.78;71.13;102711.56;6121485;23;20178;-65
2021/10/20 03:19:20;;;;;;;16.87;12.33;;;;;;;6.69;69.75;102699.91;6121752;23;20150;-65
2021/10/20 03:21:46;;;;;;;16.30;12.07;;;;;;;6.63;69.78;102715.13;6120322;23;20165;-65
2021/10/20 03:24:11;;;;;;;28.27;13.70;;;;;;;6.30;69.73;102652.13;6120185;23;20160;-65
2021/10/20 03:26:36;;;;;;;23.37;14.10;;;;;;;6.52;70.45;102694.78;6119380;23;20189;-65
2021/10/20 03:29:02;;;;;;;19.03;13.37;;;;;;;6.53;70.60;102699.94;6119841;23;20155;-65
2021/10/20 03:31:28;;;;;;;25.37;13.47;;;;;;;6.79;70.50;102735.22;6119546;23;20660;-65
2021/10/20 03:33:54;;;;;;;22.70;14.27;;;;;;;6.50;69.91;102691.56;6120633;23;20154;-66
2021/10/20 03:36:19;;;;;;;20.40;13.30;;;;;;;6.74;70.25;102730.78;6120457;23;20191;-65
2021/10/20 03:38:45;;;;;;;14.87;11.53;;;;;;;6.67;70.58;102727.03;6120869;23;20197;-66
2021/10/20 03:41:10;;;;;;;20.77;12.93;;;;;;;6.50;70.24;102721.84;6119623;23;20150;-66
2021/10/20 03:43:40;;;;;;;17.27;12.63;;;;;;;6.55;69.84;102733.44;6120354;23;20163;-66
2021/10/20 03:46:06;;;;;;;16.37;13.43;;;;;;;6.44;70.28;102704.81;6120630;23;20150;-66
2021/10/20 03:48:32;;;;;;;17.23;12.53;;;;;;;6.60;69.84;102737.88;6120661;23;20192;-66
2021/10/20 03:50:57;;;;;;;22.60;13.10;;;;;;;6.62;69.74;102724.56;6119593;23;20154;-65
2021/10/20 03:53:23;;;;;;;16.73;11.80;;;;;;;6.42;69.26;102698.84;6120391;23;20157;-65
2021/10/20 03:55:48;;;;;;;17.13;12.20;;;;;;;6.49;71.16;102712.81;6120298;23;20238;-66
2021/10/20 03:58:14;;;;;;;16.30;13.17;;;;;;;6.62;70.50;102725.34;6121075;23;20154;-65
2021/10/20 04:00:40;;;;;;;21.93;12.90;;;;;;;6.44;70.90;102699.31;6118133;23;20253;-64
2021/10/20 04:03:05;;;;;;;17.23;12.40;;;;;;;6.61;71.62;102728.47;6119890;23;20150;-65
2021/10/20 04:05:31;;;;;;;21.97;11.97;;;;;;;6.54;72.03;102714.50;6121430;23;20213;-64
2021/10/20 04:07:56;;;;;;;14.17;11.20;;;;;;;6.60;70.83;102727.66;6122092;23;20162;-64
2021/10/20 04:10:25;;;;;;;13.20;10.30;;;;;;;6.57;70.64;102735.84;6120465;23;20601;-65
2021/10/20 04:12:51;;;;;;;14.20;10.53;;;;;;;6.51;70.64;102729.00;6122042;23;20154;-65
2021/10/20 04:15:18;;;;;;;16.57;10.53;;;;;;;5.98;70.32;102655.19;6121540;23;20489;-63
2021/10/20 04:17:44;;;;;;;18.13;12.50;;;;;;;6.08;71.82;102669.25;6121274;23;20150;-63
2021/10/20 04:20:12;;;;;;;17.23;10.93;;;;;;;6.05;69.03;102691.94;6120486;23;20155;-64
2021/10/20 04:22:38;;;;;;;18.80;10.53;;;;;;;6.09;68.68;102705.81;6114228;23;20615;-63
2021/10/20 04:25:05;;;;;;;19.40;11.07;;;;;;;5.87;69.60;102671.41;6120646;23;20150;-62
2021/10/20 04:27:30;;;;;;;16.97;10.70;;;;;;;5.92;68.80;102675.84;6119926;23;20189;-62
2021/10/20 04:29:57;;;;;;;24.13;10.97;;;;;;;5.70;69.35;102643.38;6120631;23;20422;-63
2021/10/20 04:32:23;;;;;;;18.63;11.40;;;;;;;5.69;69.28;102661.81;6119977;23;20661;-63
2021/10/20 04:34:49;;;;;;;16.40;11.83;;;;;;;6.05;69.12;102702.97;6118282;23;20154;-63
2021/10/20 04:37:15;;;;;;;20.43;11.30;;;;;;;6.09;69.80;102716.81;6121172;23;20159;-63
2021/10/20 04:39:40;;;;;;;21.87;12.87;;;;;;;6.20;70.10;102737.22;6121051;23;20243;-64
2021/10/20 04:42:06;;;;;;;37.97;15.97;;;;;;;6.22;70.35;102741.22;6120116;23;20150;-63
2021/10/20 04:44:31;;;;;;;30.40;14.27;;;;;;;6.15;70.06;102748.47;6120719;23;20225;-63
2021/10/20 04:46:57;;;;;;;39.73;15.80;;;;;;;6.15;69.64;102742.97;6119338;23;20172;-63
2021/10/20 04:49:22;;;;;;;37.63;15.97;;;;;;;5.76;69.38;102686.78;6120363;23;20150;-63
2021/10/20 04:51:48;;;;;;;40.83;19.53;;;;;;;5.73;69.84;102690.25;6119453;23;20357;-62
2021/10/20 04:54:14;;;;;;;27.73;14.90;;;;;;;5.98;70.54;102740.50;6118055;23;20158;-63
2021/10/20 04:56:39;;;;;;;26.00;14.57;;;;;;;5.89;70.45;102726.88;6120415;23;20537;-63
2021/10/20 04:59:05;;;;;;;24.23;13.43;;;;;;;5.98;70.29;102735.81;6097537;23;20159;-63
2021/10/20 05:01:30;;;;;;;27.73;12.63;;;;;;;5.97;71.11;102747.97;6100717;23;20579;-63
2021/10/20 05:03:55;;;;;;;24.77;13.33;;;;;;;5.93;70.09;102738.00;6110509;23;20158;-62
2021/10/20 05:06:21;;;;;;;20.90;10.77;;;;;;;5.88;70.09;102730.78;6111636;23;20182;-62
2021/10/20 05:08:46;;;;;;;21.87;12.33;;;;;;;5.92;69.64;102744.66;6115823;23;20154;-62
2021/10/20 05:11:12;;;;;;;20.73;11.30;;;;;;;5.82;69.19;102720.38;6111310;23;20605;-63
2021/10/20 05:13:37;;;;;;;13.80;9.83;;;;;;;5.98;68.82;102740.50;6110023;23;20165;-62
2021/10/20 05:16:03;;;;;;;12.97;7.93;;;;;;;5.31;68.70;102633.19;6115268;23;20181;-63
2021/10/20 05:18:28;;;;;;;9.77;7.10;;;;;;;5.99;69.47;102729.16;6113383;23;20233;-65
2021/10/20 05:20:54;;;;;;;15.20;8.43;;;;;;;6.06;69.51;102731.31;6112609;23;20425;-62
2021/10/20 05:23:20;;;;;;;13.57;9.20;;;;;;;6.11;70.04;102731.81;6117649;23;20435;-62
2021/10/20 05:25:45;;;;;;;16.10;9.13;;;;;;;6.16;69.63;102737.09;6118479;23;20256;-64
2021/10/20 05:28:11;;;;;;;16.80;8.93;;;;;;;6.22;69.06;102727.44;6118048;23;20155;-65
2021/10/20 05:30:37;;;;;;;14.03;8.60;;;;;;;6.02;69.34;102706.44;6111552;23;20611;-65
2021/10/20 05:33:02;;;;;;;21.33;9.33;;;;;;;6.31;69.47;102730.81;6104209;23;20155;-65
2021/10/20 05:35:28;;;;;;;13.33;9.30;;;;;;;6.39;69.78;102731.81;6112894;23;20500;-65
2021/10/20 05:37:53;;;;;;;33.07;11.20;;;;;;;6.35;69.12;102726.19;6118289;23;20563;-64
2021/10/20 05:40:21;;;;;;;27.97;12.70;;;;;;;6.45;69.11;102733.13;6115317;23;20162;-64
2021/10/20 05:42:47;;;;;;;19.77;13.20;;;;;;;6.53;70.00;102740.44;6118595;23;20510;-63
2021/10/20 05:45:13;;;;;;;22.30;13.53;;;;;;;6.26;69.79;102692.53;6116269;23;20280;-63
2021/10/20 05:47:39;;;;;;;19.70;14.50;;;;;;;6.63;69.98;102748.19;6118336;23;20606;-64
2021/10/20 05:50:05;;;;;;;24.73;16.27;;;;;;;6.62;70.08;102741.88;6115357;23;20169;-64
2021/10/20 05:52:31;;;;;;;20.40;12.03;;;;;;;6.45;69.70;102717.44;6118222;23;20157;-64
2021/10/20 05:54:57;;;;;;;25.30;13.40;;;;;;;6.70;69.50;102756.63;6118939;23;20504;-64
2021/10/20 05:57:23;;;;;;;21.77;12.17;;;;;;;6.35;69.47;102715.19;6117759;23;20155;-64
2021/10/20 05:59:48;;;;;;;18.63;12.53;;;;;;;6.19;69.73;102689.59;6118399;23;20154;-64
2021/10/20 06:02:14;;;;;;;20.30;13.20;;;;;;;6.69;70.31;102771.56;6116672;23;20230;-64
2021/10/20 06:04:43;;;;;;;17.97;12.17;;;;;;;6.74;70.05;102771.31;6118120;23;20174;-64
2021/10/20 06:07:09;;;;;;;17.93;13.67;;;;;;;6.79;70.32;102766.34;6118677;23;20170;-64
2021/10/20 06:09:34;;;;;;;16.97;12.40;;;;;;;6.52;70.66;102728.63;6116936;23;20162;-64
2021/10/20 06:12:01;;;;;;;29.43;14.13;;;;;;;6.90;70.93;102772.91;6116754;23;20188;-64
2021/10/20 06:14:27;;;;;;;24.27;13.97;;;;;;;7.01;70.69;102781.44;6116341;23;20160;-63
2021/10/20 06:16:53;;;;;;;23.00;12.83;;;;;;;6.94;70.68;102750.94;6119002;23;20610;-64
2021/10/20 06:19:18;;;;;;;20.17;13.43;;;;;;;7.23;70.96;102778.84;6117721;23;20162;-64
2021/10/20 06:21:44;;;;;;;20.23;14.30;;;;;;;7.33;70.88;102781.06;6117542;23;20641;-64
2021/10/20 06:24:10;;;;;;;22.10;13.23;;;;;;;7.18;71.16;102731.44;6116830;23;20154;-64
2021/10/20 06:26:36;;;;;;;22.87;14.23;;;;;;;7.50;70.73;102774.34;6118639;23;20608;-64
2021/10/20 06:29:02;;;;;;;24.73;15.20;;;;;;;7.63;71.25;102778.59;6117097;23;20214;-64
2021/10/20 06:31:28;;;;;;;20.33;15.03;;;;;;;7.67;71.24;102782.22;6116556;23;20274;-64
2021/10/20 06:33:53;;;;;;;24.33;15.53;;;;;;;7.77;71.46;102785.22;6116745;23;20613;-63
2021/10/20 06:36:27;;;;;;;31.43;16.83;;;;;;;7.91;71.82;102784.72;6116989;23;20155;-64
2021/10/20 06:38:52;;;;;;;29.63;18.07;;;;;;;8.04;71.47;102786.19;6116626;23;20357;-63
2021/10/20 06:41:18;;;;;;;42.83;23.40;;;;;;;7.86;71.59;102743.59;6116970;23;20209;-64
2021/10/20 06:43:43;;;;;;;44.47;25.33;;;;;;;7.99;71.81;102748.59;6118957;23;20155;-64
2021/10/20 06:46:09;;;;;;;38.23;24.13;;;;;;;8.37;71.91;102792.84;6119095;23;20216;-64
2021/10/20 06:48:37;;;;;;;37.17;24.67;;;;;;;8.28;71.83;102761.06;6118710;23;20156;-64
2021/10/20 06:51:02;;;;;;;38.80;27.07;;;;;;;8.58;72.23;102790.47;6102451;23;20509;-64
2021/10/20 06:53:28;;;;;;;37.90;25.87;;;;;;;8.62;72.33;102776.72;6118203;23;20159;-64
2021/10/20 06:55:53;;;;;;;33.57;24.13;;;;;;;8.80;72.50;102789.69;6114027;23;20158;-64
2021/10/20 06:58:18;;;;;;;33.13;22.47;;;;;;;8.98;72.74;102798.28;6117962;23;20471;-64
2021/10/20 07:00:44;;;;;;;28.23;21.60;;;;;;;9.09;72.38;102800.06;6118634;23;20160;-64
2021/10/20 07:03:09;;;;;;;29.30;19.13;;;;;;;9.21;72.19;102799.88;6115313;23;20798;-64
2021/10/20 07:05:35;;;;;;;26.40;18.00;;;;;;;9.35;71.86;102797.31;6117261;23;20184;-64
2021/10/20 07:08:00;;;;;;;29.70;17.40;;;;;;;8.76;71.00;102682.97;6118534;23;20168;-64
2021/10/20 07:10:26;;;;;;;22.43;17.67;;;;;;;9.60;70.61;102792.97;6118682;23;20602;-64
2021/10/20 07:12:51;;;;;;;22.30;17.07;;;;;;;9.65;70.98;102791.84;6118671;23;20248;-64
2021/10/20 07:15:17;;;;;;;20.80;16.87;;;;;;;9.82;70.67;102799.59;6118745;23;20150;-63
2021/10/20 07:17:44;;;;;;;19.20;15.80;;;;;;;9.67;70.24;102750.72;6114045;23;20191;-64
2021/10/20 07:20:10;;;;;;;23.87;17.30;;;;;;;10.08;70.06;102785.72;6118412;23;20162;-63
2021/10/20 07:22:38;;;;;;;22.33;17.50;;;;;;;10.20;69.70;102772.41;6114284;23;20597;-64
2021/10/20 07:25:06;;;;;;;20.07;16.60;;;;;;;10.33;69.44;102782.06;6115784;23;20514;-64
2021/10/20 07:27:34;;;;;;;25.53;16.83;;;;;;;10.44;69.42;102779.41;6118165;23;20151;-64
2021/10/20 07:30:00;;;;;;;23.43;17.07;;;;;;;10.59;69.50;102783.91;6118856;23;20209;-64
2021/10/20 07:32:26;;;;;;;20.63;16.10;;;;;;;10.69;69.02;102784.03;6119136;23;20212;-64
2021/10/20 07:34:51;;;;;;;18.10;15.80;;;;;;;10.83;68.62;102780.59;6117581;23;20168;-64
2021/10/20 07:37:17;;;;;;;24.97;15.50;;;;;;;10.82;68.35;102785.34;6119001;23;20636;-64
2021/10/20 07:39:42;;;;;;;17.23;15.37;;;;;;;10.94;68.00;102778.72;6119295;23;20154;-64
2021/10/20 07:42:08;;;;;;;17.37;15.37;;;;;;;10.75;67.01;102731.78;6117348;23;20685;-64
2021/10/20 07:44:33;;;;;;;16.67;14.90;;;;;;;11.16;66.73;102770.19;6117492;23;20209;-64
2021/10/20 07:46:58;;;;;;;17.70;15.80;;;;;;;11.23;66.32;102769.44;6110527;23;20182;-64
2021/10/20 07:49:24;;;;;;;20.37;14.63;;;;;;;11.34;65.79;102770.31;6118642;23;20150;-64
2021/10/20 07:51:53;;;;;;;17.83;14.57;;;;;;;11.38;65.14;102768.38;6115097;23;20158;-64
2021/10/20 07:54:19;;;;;;;18.53;15.33;;;;;;;11.52;64.79;102777.59;6115124;23;20512;-64
2021/10/20 07:56:44;;;;;;;18.53;15.67;;;;;;;11.55;64.51;102764.91;6118835;23;20221;-64
2021/10/20 07:59:10;;;;;;;17.33;13.70;;;;;;;11.67;63.80;102770.97;6119596;23;20158;-64
2021/10/20 08:01:35;;;;;;;18.83;15.00;;;;;;;11.53;64.82;102770.84;6115347;23;20177;-64
2021/10/20 08:04:01;;;;;;;18.73;16.07;;;;;;;11.49;64.75;102763.69;6118919;23;20263;-64
2021/10/20 08:06:26;;;;;;;17.97;15.40;;;;;;;11.44;64.58;102764.84;6118021;23;20182;-64
2021/10/20 08:08:52;;;;;;;15.87;13.63;;;;;;;11.69;64.15;102763.03;6119622;23;20155;-64
2021/10/20 08:11:17;;;;;;;17.50;15.70;;;;;;;11.85;63.95;102757.97;6110681;23;20611;-64
2021/10/20 08:13:43;;;;;;;18.63;15.80;;;;;;;11.92;63.99;102757.19;6117630;23;20158;-64
2021/10/20 08:16:08;;;;;;;17.53;15.57;;;;;;;11.81;63.63;102725.78;6113065;23;20147;-64
2021/10/20 08:18:34;;;;;;;21.63;18.70;;;;;;;12.03;63.71;102750.50;6116289;23;20229;-64
2021/10/20 08:20:59;;;;;;;20.70;15.70;;;;;;;11.80;63.53;102747.25;6117756;23;20198;-64
2021/10/20 08:23:26;;;;;;;20.87;16.40;;;;;;;12.07;63.41;102758.84;6119359;23;20162;-64
2021/10/20 08:25:52;;;;;;;20.37;17.03;;;;;;;12.18;64.03;102749.34;6115256;23;20187;-64
2021/10/20 08:28:18;;;;;;;23.30;19.63;;;;;;;12.33;64.43;102755.75;6118549;23;20243;-64
2021/10/20 08:30:43;;;;;;;26.80;22.60;;;;;;;12.32;64.84;102751.38;6117035;23;20275;-64
2021/10/20 08:33:09;;;;;;;25.30;21.17;;;;;;;12.26;64.73;102720.41;6118783;23;20143;-64
2021/10/20 08:35:37;;;;;;;26.23;23.30;;;;;;;12.47;64.84;102758.56;6118370;23;20150;-65
2021/10/20 08:38:04;;;;;;;25.27;20.87;;;;;;;12.45;65.16;102767.31;6117256;23;20161;-64
2021/10/20 08:40:32;;;;;;;27.83;22.33;;;;;;;12.65;64.43;102760.19;6115587;23;20157;-64
2021/10/20 08:42:59;;;;;;;28.67;25.57;;;;;;;12.85;64.75;102763.38;6118027;23;20228;-64
2021/10/20 08:45:25;;;;;;;25.23;21.13;;;;;;;12.68;63.97;102730.78;6117153;23;20189;-64
2021/10/20 08:47:52;;;;;;;25.70;21.97;;;;;;;12.70;63.60;102715.28;6111468;23;20233;-64
2021/10/20 08:50:27;;;;;;;24.40;20.27;;;;;;;13.12;63.57;102757.06;6112277;23;20162;-64
2021/10/20 08:52:53;;;;;;;21.57;18.80;;;;;;;12.91;63.19;102757.03;6111783;23;20171;-64
2021/10/20 08:55:20;;;;;;;21.23;17.77;;;;;;;12.74;63.68;102720.84;6112984;23;20393;-64
2021/10/20 08:57:51;;;;;;;21.47;17.17;;;;;;;12.96;64.03;102747.53;6115984;23;20161;-64
2021/10/20 09:00:18;;;;;;;18.67;16.67;;;;;;;13.05;63.56;102739.56;6115153;23;20319;-64
2021/10/20 09:02:46;;;;;;;17.50;15.60;;;;;;;13.19;63.23;102725.63;6116098;23;20652;-64
2021/10/20 09:05:15;;;;;;;18.10;16.20;;;;;;;13.47;62.95;102737.53;6116962;23;20194;-64
2021/10/20 09:07:46;;;;;;;20.30;16.03;;;;;;;13.56;62.18;102725.94;6117298;23;20181;-65
2021/10/20 09:10:12;;;;;;;20.43;16.33;;;;;;;13.70;62.10;102723.13;6117358;23;20154;-64
2021/10/20 09:12:38;;;;;;;21.00;15.87;;;;;;;13.69;61.85;102711.19;6116266;23;20518;-64
2021/10/20 09:15:10;;;;;;;19.30;15.47;;;;;;;13.91;61.33;102729.44;6115058;23;20211;-64
2021/10/20 09:17:59;;;;;;;19.33;15.20;;;;;;;14.13;60.68;102727.31;6117172;23;20155;-64
2021/10/20 09:20:36;;;;;;;17.30;15.50;;;;;;;14.24;60.42;102739.25;6109933;23;20155;-65
2021/10/20 09:23:15;;;;;;;17.50;14.97;;;;;;;14.33;60.11;102725.63;6118272;23;20240;-64
2021/10/20 09:25:58;;;;;;;17.83;14.87;;;;;;;14.15;59.79;102720.13;6115166;23;20195;-64
2021/10/20 09:28:33;;;;;;;17.10;15.20;;;;;;;13.85;60.24;102682.84;6115140;23;20172;-64
2021/10/20 09:31:04;;;;;;;18.70;16.10;;;;;;;14.20;60.45;102719.72;6117092;23;20212;-64
2021/10/20 09:33:37;;;;;;;19.63;16.10;;;;;;;14.33;59.94;102723.66;6117575;23;20498;-64
2021/10/20 09:36:07;;;;;;;20.00;16.60;;;;;;;14.31;59.38;102716.91;6115925;23;20164;-64
2021/10/20 09:38:35;;;;;;;21.47;17.50;;;;;;;14.43;59.73;102696.88;6116434;23;20189;-64
2021/10/20 09:41:04;;;;;;;22.80;19.20;;;;;;;14.63;59.13;102714.69;6109697;23;20168;-64
2021/10/20 09:43:30;;;;;;;20.90;17.53;;;;;;;14.71;58.98;102710.66;6113618;23;20161;-64
2021/10/20 09:45:56;;;;;;;21.63;18.57;;;;;;;14.95;58.34;102709.63;6115458;23;20193;-64
2021/10/20 09:48:25;;;;;;;14.10;12.60;;;;;;;15.15;64.64;102696.66;6111144;23;20156;-65
2021/10/20 09:51:04;;;;;;;16.83;14.23;;;;;;;16.78;60.14;102701.34;6113397;23;20150;-71
2021/10/20 09:53:41;;;;;;;17.87;13.00;;;;;;;18.07;56.87;102696.47;6113832;23;20160;-68
2021/10/20 09:56:20;;;;;;;16.30;12.67;;;;;;;18.49;53.20;102701.94;6115695;23;20146;-70
2021/10/20 09:58:49;;;;;;;21.37;14.53;;;;;;;18.33;52.64;102701.13;6112821;23;20164;-69
2021/10/20 10:01:17;;;;;;;17.43;15.27;;;;;;;18.64;51.27;102682.72;6115931;23;20156;-71
2021/10/20 10:03:42;;;;;;;21.77;16.40;;;;;;;18.32;50.74;102674.25;6116899;23;20615;-65
2021/10/20 10:06:08;;;;;;;23.67;17.00;;;;;;;18.24;50.81;102679.25;6115898;23;20175;-74
2021/10/20 10:08:34;;;;;;;19.63;15.23;;;;;;;18.49;51.08;102673.06;6117681;23;20161;-73
2021/10/20 10:10:59;;;;;;;20.67;15.60;;;;;;;18.83;50.05;102684.66;6113078;23;20155;-71
2021/10/20 10:13:28;;;;;;;20.90;16.33;;;;;;;18.73;48.87;102686.50;6115849;23;20684;-71
2021/10/20 10:15:55;;;;;;;22.03;16.07;;;;;;;18.31;49.90;102675.50;6116096;23;20152;-72
2021/10/20 10:18:22;;;;;;;19.77;17.13;;;;;;;18.18;49.99;102678.97;6116845;23;20514;-71
2021/10/20 10:20:47;;;;;;;18.80;16.63;;;;;;;17.93;50.57;102677.94;6118302;23;20164;-73
2021/10/20 10:23:24;;;;;;;19.63;17.33;;;;;;;17.54;51.46;102672.34;6119688;23;20162;-72
2021/10/20 10:26:08;;;;;;;20.53;17.67;;;;;;;17.07;52.42;102631.63;6119576;23;20148;-72
2021/10/20 10:28:35;;;;;;;19.93;17.80;;;;;;;17.20;52.38;102671.78;6118935;23;20638;-72
2021/10/20 10:31:07;;;;;;;21.03;17.93;;;;;;;16.96;52.69;102667.44;6111899;23;20217;-69
2021/10/20 10:33:38;;;;;;;21.83;18.03;;;;;;;16.67;54.13;102639.16;6115479;23;20379;-67
2021/10/20 10:36:05;;;;;;;19.37;17.27;;;;;;;16.89;54.14;102653.53;6116868;23;20276;-68
2021/10/20 10:38:40;;;;;;;22.33;18.67;;;;;;;16.80;53.95;102653.34;6116194;23;20239;-68
2021/10/20 10:41:27;;;;;;;22.90;18.50;;;;;;;16.68;54.17;102651.91;6117159;23;20142;-65
2021/10/20 10:44:11;;;;;;;20.53;18.33;;;;;;;16.67;54.61;102641.94;6119030;23;20150;-67
2021/10/20 10:46:54;;;;;;;25.07;19.57;;;;;;;16.46;54.73;102624.72;6118250;23;20131;-67
2021/10/20 10:49:52;;;;;;;21.07;18.80;;;;;;;16.58;54.70;102621.28;6116195;23;20232;-67
2021/10/20 10:52:27;;;;;;;20.80;18.00;;;;;;;16.63;54.54;102624.41;6118558;23;20143;-67
2021/10/20 10:55:06;;;;;;;20.93;17.77;;;;;;;16.75;54.43;102615.38;6118050;23;20236;-67
2021/10/20 10:57:40;;;;;;;23.03;18.73;;;;;;;16.79;53.21;102599.31;6117986;23;20565;-67
2021/10/20 11:00:17;;;;;;;21.23;18.93;;;;;;;16.70;53.75;102604.69;6118037;23;20165;-68
2021/10/20 11:02:52;;;;;;;19.70;17.70;;;;;;;16.83;54.37;102610.44;6119367;23;20142;-68
2021/10/20 11:05:20;;;;;;;18.47;16.40;;;;;;;16.77;53.34;102551.38;6119920;23;20525;-65
2021/10/20 11:07:47;;;;;;;20.20;16.63;;;;;;;17.22;53.14;102588.88;6116474;23;20570;-66
2021/10/20 11:10:15;;;;;;;19.20;16.77;;;;;;;17.20;52.37;102546.50;6115654;23;20161;-65
2021/10/20 11:12:43;;;;;;;21.03;16.33;;;;;;;17.50;52.52;102581.91;6119450;23;20165;-65
2021/10/20 11:15:12;;;;;;;7.83;6.83;;;;;;;17.68;52.13;102585.16;6119967;23;20157;-65